createdAt,value
2019-02-15T00:02:18.761Z,6.20
2019-02-15T00:04:49.344Z,6.20
2019-02-15T00:07:23.934Z,6.20
2019-02-15T00:09:56.023Z,6.20
2019-02-15T00:12:26.414Z,6.20
2019-02-15T00:15:01.063Z,6.10
2019-02-15T00:18:09.538Z,6.10
2019-02-15T00:20:47.442Z,6.10
2019-02-15T00:23:17.777Z,6.10
2019-02-15T00:25:49.892Z,6.10
2019-02-15T00:28:20.010Z,6.10
2019-02-15T00:30:50.766Z,6.10
2019-02-15T00:33:21.719Z,6.10
2019-02-15T00:35:51.862Z,6.00
2019-02-15T00:38:22.386Z,6.00
2019-02-15T00:40:52.664Z,6.00
2019-02-15T00:43:23.184Z,6.00
2019-02-15T00:46:12.995Z,6.00
2019-02-15T00:48:51.436Z,6.00
2019-02-15T00:51:52.437Z,6.00
2019-02-15T00:54:52.981Z,6.00
2019-02-15T00:57:41.162Z,6.00
2019-02-15T01:00:32.428Z,6.00
2019-02-15T01:03:28.669Z,5.90
2019-02-15T01:06:30.545Z,5.90
2019-02-15T01:09:39.260Z,5.80
2019-02-15T01:12:38.404Z,5.80
2019-02-15T01:15:08.442Z,5.80
2019-02-15T01:17:38.386Z,5.80
2019-02-15T01:20:08.913Z,5.80
2019-02-15T01:22:40.833Z,5.80
2019-02-15T01:25:11.198Z,5.80
2019-02-15T01:27:51.397Z,5.80
2019-02-15T01:30:54.573Z,5.80
2019-02-15T01:33:38.182Z,5.80
2019-02-15T01:36:29.418Z,5.70
2019-02-15T01:39:24.221Z,5.70
2019-02-15T01:42:15.120Z,5.70
2019-02-15T01:45:04.540Z,5.70
2019-02-15T01:47:41.133Z,5.70
2019-02-15T01:50:14.291Z,5.70
2019-02-15T01:52:44.220Z,5.70
2019-02-15T01:55:16.179Z,5.70
2019-02-15T01:57:52.610Z,5.70
2019-02-15T02:00:27.715Z,5.70
2019-02-15T02:03:01.087Z,5.70
2019-02-15T02:05:33.326Z,5.70
2019-02-15T02:08:07.495Z,5.60
2019-02-15T02:10:40.433Z,5.60
2019-02-15T02:13:11.173Z,5.50
2019-02-15T02:15:42.574Z,5.60
2019-02-15T02:18:13.467Z,5.60
2019-02-15T02:20:44.253Z,5.50
2019-02-15T02:23:14.120Z,5.50
2019-02-15T02:25:43.844Z,5.40
2019-02-15T02:28:13.951Z,5.40
2019-02-15T02:30:45.389Z,5.30
2019-02-15T02:33:15.165Z,5.30
2019-02-15T02:35:45.056Z,5.30
2019-02-15T02:38:19.628Z,5.30
2019-02-15T02:40:50.636Z,5.20
2019-02-15T02:43:20.677Z,5.20
2019-02-15T02:45:50.579Z,5.20
2019-02-15T02:48:20.824Z,5.20
2019-02-15T02:50:50.918Z,5.20
2019-02-15T02:53:20.730Z,5.20
2019-02-15T02:55:50.497Z,5.20
2019-02-15T02:58:21.002Z,5.20
2019-02-15T03:00:53.210Z,5.20
2019-02-15T03:03:23.327Z,5.20
2019-02-15T03:05:53.171Z,5.20
2019-02-15T03:08:22.848Z,5.10
2019-02-15T03:10:52.618Z,5.20
2019-02-15T03:13:22.631Z,5.20
2019-02-15T03:15:52.749Z,5.10
2019-02-15T03:18:22.510Z,5.10
2019-02-15T03:20:52.349Z,5.10
2019-02-15T03:23:22.358Z,5.10
2019-02-15T03:25:52.072Z,5.00
2019-02-15T03:28:21.862Z,5.00
2019-02-15T03:30:51.575Z,4.90
2019-02-15T03:33:21.539Z,4.90
2019-02-15T03:36:03.011Z,4.90
2019-02-15T03:38:46.917Z,4.90
2019-02-15T03:41:30.650Z,4.90
2019-02-15T03:44:00.384Z,4.80
2019-02-15T03:46:30.227Z,4.80
2019-02-15T03:49:00.343Z,4.80
2019-02-15T03:51:30.273Z,4.80
2019-02-15T03:54:00.191Z,4.80
2019-02-15T03:56:30.232Z,4.80
2019-02-15T03:59:00.328Z,4.70
2019-02-15T04:01:30.080Z,4.70
2019-02-15T04:04:00.089Z,4.70
2019-02-15T04:06:30.094Z,4.70
2019-02-15T04:08:59.953Z,4.70
2019-02-15T04:11:29.797Z,4.70
2019-02-15T04:14:04.625Z,4.70
2019-02-15T04:16:40.220Z,4.60
2019-02-15T04:19:10.887Z,4.70
2019-02-15T04:21:40.610Z,4.70
2019-02-15T04:24:10.443Z,4.70
2019-02-15T04:26:40.186Z,4.70
2019-02-15T04:29:10.146Z,4.80
2019-02-15T04:31:40.364Z,4.80
2019-02-15T04:34:10.350Z,4.80
2019-02-15T04:36:40.294Z,4.80
2019-02-15T04:39:13.419Z,4.70
2019-02-15T04:41:43.129Z,4.70
2019-02-15T04:44:12.872Z,4.70
2019-02-15T04:46:42.641Z,4.60
2019-02-15T04:49:12.874Z,4.60
2019-02-15T04:51:42.545Z,4.50
2019-02-15T04:54:24.718Z,4.50
2019-02-15T04:57:03.221Z,4.50
2019-02-15T04:59:33.622Z,4.50
2019-02-15T05:02:03.714Z,4.50
2019-02-15T05:04:33.838Z,4.40
2019-02-15T05:07:04.676Z,4.40
2019-02-15T05:09:34.486Z,4.40
2019-02-15T05:12:04.667Z,4.40
2019-02-15T05:14:34.432Z,4.40
2019-02-15T05:17:05.244Z,4.40
2019-02-15T05:19:36.263Z,4.40
2019-02-15T05:22:06.061Z,4.40
2019-02-15T05:24:35.927Z,4.40
2019-02-15T05:27:08.401Z,4.40
2019-02-15T05:29:39.025Z,4.40
2019-02-15T05:32:09.405Z,4.40
2019-02-15T05:34:39.668Z,4.40
2019-02-15T05:37:11.987Z,4.40
2019-02-15T05:39:42.137Z,4.40
2019-02-15T05:42:11.957Z,4.40
2019-02-15T05:44:45.079Z,4.40
2019-02-15T05:47:14.915Z,4.30
2019-02-15T05:49:45.106Z,4.20
2019-02-15T05:52:16.654Z,4.20
2019-02-15T05:54:50.598Z,4.20
2019-02-15T05:57:20.766Z,4.20
2019-02-15T05:59:52.568Z,4.20
2019-02-15T06:02:22.342Z,4.10
2019-02-15T06:04:52.125Z,4.10
2019-02-15T06:07:30.986Z,4.10
2019-02-15T06:10:01.844Z,4.10
2019-02-15T06:12:31.819Z,4.00
2019-02-15T06:15:01.672Z,4.00
2019-02-15T06:17:31.614Z,4.00
2019-02-15T06:20:01.406Z,4.00
2019-02-15T06:22:38.101Z,4.00
2019-02-15T06:25:15.438Z,4.00
2019-02-15T06:27:45.675Z,4.10
2019-02-15T06:30:15.722Z,4.10
2019-02-15T06:32:57.283Z,4.10
2019-02-15T06:35:20.175Z,4.10
2019-02-15T06:37:56.927Z,4.10
2019-02-15T06:40:27.010Z,4.20
2019-02-15T06:43:01.792Z,4.20
2019-02-15T06:45:35.417Z,4.20
2019-02-15T06:48:07.655Z,4.30
2019-02-15T06:50:41.501Z,4.30
2019-02-15T06:53:11.316Z,4.40
2019-02-15T06:55:43.970Z,4.40
2019-02-15T06:58:17.498Z,4.50
2019-02-15T07:00:57.853Z,4.50
2019-02-15T07:03:54.229Z,4.50
2019-02-15T07:06:24.257Z,4.60
2019-02-15T07:09:00.380Z,4.60
2019-02-15T07:11:30.436Z,4.60
2019-02-15T07:14:00.714Z,4.60
2019-02-15T07:16:30.495Z,4.50
2019-02-15T07:19:00.321Z,4.50
2019-02-15T07:21:33.158Z,4.50
2019-02-15T07:24:03.225Z,4.50
2019-02-15T07:26:33.425Z,4.50
2019-02-15T07:29:03.338Z,4.50
2019-02-15T07:31:33.233Z,4.50
2019-02-15T07:34:06.100Z,4.50
2019-02-15T07:36:36.135Z,4.60
2019-02-15T07:39:07.090Z,4.70
2019-02-15T07:41:39.175Z,4.70
2019-02-15T07:44:09.033Z,4.80
2019-02-15T07:46:38.890Z,4.90
2019-02-15T07:49:16.468Z,5.00
2019-02-15T07:51:46.261Z,5.00
2019-02-15T07:54:16.134Z,5.10
2019-02-15T07:56:45.969Z,5.20
2019-02-15T07:59:19.324Z,5.30
2019-02-15T08:01:50.872Z,5.40
2019-02-15T08:04:21.079Z,5.40
2019-02-15T08:07:05.565Z,5.50
2019-02-15T08:09:37.288Z,5.50
2019-02-15T08:12:19.203Z,5.60
2019-02-15T08:15:00.423Z,5.70
2019-02-15T08:17:43.468Z,5.70
2019-02-15T08:20:17.252Z,5.80
2019-02-15T08:22:47.589Z,5.90
2019-02-15T08:25:17.690Z,5.90
2019-02-15T08:27:47.448Z,5.90
2019-02-15T08:30:19.254Z,6.00
2019-02-15T08:32:49.257Z,6.00
2019-02-15T08:35:31.809Z,6.10
2019-02-15T08:38:13.135Z,6.20
2019-02-15T08:40:48.348Z,6.30
2019-02-15T08:43:22.193Z,6.40
2019-02-15T08:46:00.875Z,6.50
2019-02-15T08:49:04.087Z,6.50
2019-02-15T08:51:37.911Z,6.60
2019-02-15T08:54:09.911Z,6.60
2019-02-15T08:56:42.754Z,6.70
2019-02-15T08:59:12.817Z,6.80
2019-02-15T09:01:43.907Z,6.80
2019-02-15T09:04:14.155Z,6.90
2019-02-15T09:06:44.010Z,7.00
2019-02-15T09:09:14.422Z,7.10
2019-02-15T09:11:45.445Z,7.10
2019-02-15T09:14:15.581Z,7.20
2019-02-15T09:16:45.398Z,7.30
2019-02-15T09:19:15.568Z,7.40
2019-02-15T09:21:47.081Z,7.50
2019-02-15T09:24:25.719Z,7.50
2019-02-15T09:26:56.357Z,7.60
2019-02-15T09:29:26.471Z,7.70
2019-02-15T09:32:09.745Z,7.80
2019-02-15T09:34:47.454Z,7.90
2019-02-15T09:37:23.476Z,8.00
2019-02-15T09:39:55.237Z,8.10
2019-02-15T09:42:40.697Z,8.20
2019-02-15T09:45:17.635Z,8.20
2019-02-15T09:47:53.419Z,8.40
2019-02-15T09:50:23.989Z,8.50
2019-02-15T09:52:58.928Z,8.60
2019-02-15T09:55:32.407Z,8.70
2019-02-15T09:58:11.856Z,8.80
2019-02-15T10:00:45.559Z,8.90
2019-02-15T10:03:23.700Z,8.90
2019-02-15T10:06:00.305Z,9.10
2019-02-15T10:08:39.507Z,9.20
2019-02-15T10:11:23.787Z,9.30
2019-02-15T10:14:00.093Z,9.40
2019-02-15T10:16:35.785Z,9.50
2019-02-15T10:19:22.016Z,9.60
2019-02-15T10:21:50.198Z,9.70
2019-02-15T10:24:22.400Z,9.80
2019-02-15T10:26:56.705Z,9.90
2019-02-15T10:29:34.601Z,10.00
2019-02-15T10:32:09.447Z,10.10
2019-02-15T10:34:42.489Z,10.20
2019-02-15T10:37:12.844Z,10.30
2019-02-15T10:39:45.200Z,10.40
2019-02-15T10:42:15.274Z,10.50
2019-02-15T10:44:45.457Z,10.60
2019-02-15T10:49:58.098Z,10.70
2019-02-15T10:52:39.945Z,10.90
2019-02-15T10:55:24.144Z,10.90
2019-02-15T10:58:10.202Z,11.10
2019-02-15T11:00:53.795Z,11.20
2019-02-15T11:03:26.931Z,11.40
2019-02-15T11:06:15.865Z,11.50
2019-02-15T11:09:01.675Z,11.60
2019-02-15T11:11:43.150Z,12.00
2019-02-15T11:14:24.810Z,12.80
2019-02-15T11:17:09.535Z,14.10
2019-02-15T11:19:51.555Z,15.70
2019-02-15T11:22:33.120Z,16.90
2019-02-15T11:25:17.638Z,17.20
2019-02-15T11:27:58.585Z,17.80
2019-02-15T11:30:40.275Z,18.20
2019-02-15T11:33:25.266Z,18.20
2019-02-15T11:36:06.676Z,17.90
2019-02-15T11:39:17.198Z,17.70
2019-02-15T11:41:39.189Z,18.30
2019-02-15T11:44:23.104Z,18.90
2019-02-15T11:47:05.736Z,19.10
2019-02-15T11:50:02.336Z,19.60
2019-02-15T11:52:51.401Z,19.90
2019-02-15T11:55:40.377Z,20.00
2019-02-15T11:58:21.669Z,20.10
2019-02-15T12:04:14.926Z,21.00
2019-02-15T12:06:55.688Z,21.20
2019-02-15T12:09:40.194Z,21.30
2019-02-15T12:12:22.204Z,21.30
2019-02-15T12:15:04.758Z,21.60
2019-02-15T12:17:46.685Z,21.50
2019-02-15T12:20:32.522Z,21.30
2019-02-15T12:26:02.848Z,21.30
2019-02-15T12:28:46.610Z,20.10
2019-02-15T12:31:29.124Z,20.10
2019-02-15T12:34:12.610Z,20.40
2019-02-15T12:37:18.989Z,20.90
2019-02-15T12:39:41.353Z,21.20
2019-02-15T12:42:22.562Z,21.60
2019-02-15T12:45:06.407Z,21.70
2019-02-15T12:47:51.620Z,22.20
2019-02-15T12:50:33.827Z,21.90
2019-02-15T12:53:26.289Z,21.10
2019-02-15T12:56:32.559Z,21.00
2019-02-15T12:59:16.054Z,21.50
2019-02-15T13:01:58.565Z,21.40
2019-02-15T13:04:29.110Z,21.70
2019-02-15T13:13:35.206Z,21.80
2019-02-15T13:18:34.290Z,22.30
2019-02-15T13:21:23.509Z,21.90
2019-02-15T13:24:14.370Z,22.10
2019-02-15T13:26:55.839Z,23.00
2019-02-15T13:29:40.933Z,22.30
2019-02-15T13:32:25.508Z,22.20
2019-02-15T13:35:08.173Z,22.00
2019-02-15T13:40:53.175Z,22.30
2019-02-15T13:43:35.746Z,22.30
2019-02-15T13:49:04.010Z,21.90
2019-02-15T13:51:49.608Z,22.20
2019-02-15T13:54:33.437Z,22.80
2019-02-15T13:57:15.244Z,23.90
2019-02-15T13:59:57.613Z,24.60
2019-02-15T14:02:43.574Z,24.40
2019-02-15T14:05:30.008Z,24.20
2019-02-15T14:08:12.051Z,24.00
2019-02-15T14:19:58.158Z,24.70
2019-02-15T14:22:48.728Z,23.70
2019-02-15T14:25:19.761Z,23.10
2019-02-15T14:27:49.984Z,22.70
2019-02-15T14:30:41.248Z,23.40
2019-02-15T14:39:50.210Z,22.80
2019-02-15T14:42:34.422Z,22.90
2019-02-15T14:45:18.434Z,23.00
2019-02-15T14:48:00.750Z,22.70
2019-02-15T14:51:02.641Z,22.90
2019-02-15T14:53:51.407Z,22.70
2019-02-15T14:56:33.594Z,21.70
2019-02-15T14:59:04.445Z,21.00
2019-02-15T15:02:14.374Z,19.60
2019-02-15T15:08:11.046Z,17.80
2019-02-15T15:10:52.093Z,17.40
2019-02-15T15:13:38.515Z,17.10
2019-02-15T15:16:18.606Z,16.90
2019-02-15T15:24:51.439Z,16.80
2019-02-15T15:27:37.074Z,17.20
2019-02-15T15:30:24.037Z,17.60
2019-02-15T15:33:25.774Z,17.50
2019-02-15T15:36:15.133Z,17.20
2019-02-15T15:38:56.409Z,16.90
2019-02-15T15:41:39.496Z,16.80
2019-02-15T15:44:11.093Z,16.60
2019-02-15T15:47:00.767Z,16.60
2019-02-15T15:49:43.053Z,16.50
2019-02-15T15:52:31.025Z,16.40
2019-02-15T15:59:09.315Z,16.30
2019-02-15T16:01:54.680Z,16.20
2019-02-15T16:04:44.179Z,16.10
2019-02-15T16:07:52.010Z,16.10
2019-02-15T16:13:16.291Z,15.90
2019-02-15T16:15:59.513Z,15.90
2019-02-15T16:18:41.592Z,15.80
2019-02-15T16:24:15.160Z,15.70
2019-02-15T16:26:56.569Z,15.60
2019-02-15T16:29:43.137Z,15.50
2019-02-15T16:32:27.480Z,15.50
2019-02-15T16:35:09.325Z,15.40
2019-02-15T16:38:09.227Z,15.30
2019-02-15T16:40:53.757Z,15.30
2019-02-15T16:43:38.819Z,15.10
2019-02-15T16:52:07.775Z,15.00
2019-02-15T16:58:19.410Z,15.10
2019-02-15T17:01:10.594Z,15.10
2019-02-15T17:03:44.946Z,15.10
2019-02-15T17:06:32.652Z,15.10
2019-02-15T17:09:05.556Z,15.10
2019-02-15T17:11:32.230Z,15.00
2019-02-15T17:14:07.374Z,15.00
2019-02-15T17:16:45.024Z,15.00
2019-02-15T17:19:23.037Z,14.90
2019-02-15T17:22:10.884Z,14.80
2019-02-15T17:25:05.640Z,14.80
2019-02-15T17:27:43.302Z,14.70
2019-02-15T17:30:17.012Z,14.60
2019-02-15T17:32:49.650Z,14.60
2019-02-15T17:35:23.206Z,14.60
2019-02-15T17:37:56.946Z,14.50
2019-02-15T17:40:27.658Z,14.50
2019-02-15T17:43:05.774Z,14.40
2019-02-15T17:45:47.248Z,14.40
2019-02-15T17:48:41.654Z,14.30
2019-02-15T17:51:27.119Z,14.30
2019-02-15T17:54:08.686Z,14.20
2019-02-15T17:57:08.015Z,14.10
2019-02-15T17:59:47.049Z,14.00
2019-02-15T18:02:40.227Z,14.00
2019-02-15T18:05:23.695Z,13.90
2019-02-15T18:08:05.985Z,13.80
2019-02-15T18:10:39.464Z,13.80
2019-02-15T18:13:10.991Z,13.80
2019-02-15T18:15:44.277Z,13.80
2019-02-15T18:18:18.597Z,13.70
2019-02-15T18:21:00.133Z,13.70
2019-02-15T18:23:47.424Z,13.60
2019-02-15T18:26:37.543Z,13.70
2019-02-15T18:29:13.916Z,13.60
2019-02-15T18:31:52.721Z,13.60
2019-02-15T18:34:28.104Z,13.50
2019-02-15T18:37:03.277Z,13.50
2019-02-15T18:39:49.114Z,13.40
2019-02-15T18:42:39.693Z,13.40
2019-02-15T18:45:27.846Z,13.40
2019-02-15T18:48:10.357Z,13.40
2019-02-15T18:50:50.978Z,13.30
2019-02-15T18:53:34.009Z,13.20
2019-02-15T18:59:18.274Z,13.10
2019-02-15T19:01:59.587Z,13.10
2019-02-15T19:04:36.251Z,13.00
2019-02-15T19:07:24.817Z,13.00
2019-02-15T19:10:05.813Z,13.00
2019-02-15T19:12:46.665Z,13.00
2019-02-15T19:15:30.864Z,12.90
2019-02-15T19:19:40.432Z,12.90
2019-02-15T19:21:16.966Z,12.80
2019-02-15T19:24:00.202Z,12.80
2019-02-15T19:27:06.732Z,12.80
2019-02-15T19:30:13.502Z,12.70
2019-02-15T19:32:57.274Z,12.60
2019-02-15T19:35:35.224Z,12.50
2019-02-15T19:38:14.544Z,12.50
2019-02-15T19:41:08.256Z,12.40
2019-02-15T19:43:47.354Z,12.40
2019-02-15T19:46:50.208Z,12.30
2019-02-15T19:49:42.372Z,12.30
2019-02-15T19:52:22.500Z,12.30
2019-02-15T19:55:12.209Z,12.30
2019-02-15T19:58:23.688Z,12.30
2019-02-15T20:00:53.270Z,12.30
2019-02-15T20:03:38.715Z,12.30
2019-02-15T20:06:25.490Z,12.20
2019-02-15T20:09:11.467Z,12.10
2019-02-15T20:12:03.824Z,12.10
2019-02-15T20:14:48.840Z,12.00
2019-02-15T20:17:20.961Z,12.00
2019-02-15T20:20:14.491Z,11.90
2019-02-15T20:22:55.685Z,11.90
2019-02-15T20:25:50.866Z,11.90
2019-02-15T20:28:29.346Z,11.80
2019-02-15T20:31:22.309Z,11.70
2019-02-15T20:34:02.079Z,11.70
2019-02-15T20:36:43.412Z,11.70
2019-02-15T20:39:34.494Z,11.70
2019-02-15T20:42:45.080Z,11.60
2019-02-15T20:45:23.527Z,11.60
2019-02-15T20:48:11.819Z,11.60
2019-02-15T20:50:45.173Z,11.60
2019-02-15T20:53:16.518Z,11.40
2019-02-15T20:55:50.269Z,11.40
2019-02-15T20:58:40.855Z,11.40
2019-02-15T21:01:34.577Z,11.40
2019-02-15T21:04:45.233Z,11.30
2019-02-15T21:07:32.739Z,11.30
2019-02-15T21:10:55.112Z,11.30
2019-02-15T21:13:20.706Z,11.20
2019-02-15T21:19:28.669Z,11.20
2019-02-15T21:27:50.770Z,11.20
2019-02-15T21:31:44.956Z,11.30
2019-02-15T21:36:17.239Z,11.10
2019-02-15T21:45:35.812Z,10.90
2019-02-15T21:48:06.822Z,10.90
2019-02-15T21:50:49.549Z,10.90
2019-02-15T21:57:21.746Z,10.90
2019-02-15T22:02:40.176Z,10.90
2019-02-15T22:11:50.482Z,10.90
2019-02-15T22:14:32.107Z,10.90
2019-02-15T22:17:15.199Z,10.80
2019-02-15T22:19:58.256Z,10.70
2019-02-15T22:22:42.197Z,10.70
2019-02-15T22:25:23.527Z,10.70
2019-02-15T22:28:08.930Z,10.60
2019-02-15T22:31:13.025Z,10.60
2019-02-15T22:33:56.457Z,10.60
2019-02-15T22:36:40.174Z,10.60
2019-02-15T22:39:22.603Z,10.50
2019-02-15T22:42:05.999Z,10.30
2019-02-15T22:44:50.749Z,10.10
2019-02-15T22:47:34.232Z,10.00
2019-02-15T22:53:00.177Z,9.80
2019-02-15T22:59:06.153Z,9.60
2019-02-15T23:01:43.046Z,9.50
2019-02-15T23:04:49.973Z,9.40
2019-02-15T23:11:14.638Z,9.30
2019-02-15T23:13:59.360Z,9.20
2019-02-15T23:16:45.108Z,9.10
2019-02-15T23:19:27.027Z,9.00
2019-02-15T23:22:09.321Z,8.90
2019-02-15T23:24:51.882Z,8.90
2019-02-15T23:34:38.082Z,8.80
2019-02-15T23:39:59.413Z,8.70
2019-02-15T23:42:42.784Z,8.60
2019-02-15T23:45:27.218Z,8.60
2019-02-15T23:48:09.756Z,8.60
2019-02-15T23:50:54.959Z,8.50
2019-02-15T23:54:07.342Z,8.50
